Terminal Aerodrome Forecast
Issued by NWS

Home | Current Version | Previous Version | Graphics & Text | Print | Product List | Glossary On
Versions: 1 2 3 4 5 6 7 8 9 10 11 12 13 14 15 16 17 18 19 20 21 22 23 24 25 26 27 28 29 30 31 32 33 34
000
FTUS43 KGRB 271120
TAFRHI
TAF
KRHI 271120Z 2712/2812 25004KT 6SM -SHRA BR SCT030 BKN080
      TEMPO 2712/2716 1 1/2SM TSRA BKN030CB
     FM271600 VRB03KT 6SM -SHRA VCTS BKN050CB
     FM272100 04004KT 4SM -SHRA BKN025 OVC040
     FM280100 07004KT P6SM VCSH BKN025 OVC040
     FM280600 09006KT 5SM BR BKN020
     FM280900 06003KT 2SM BR BKN009 OVC018=

USA.gov is the U.S. government's official web portal to all federal, state and local government web resources and services.